sensor_id;sensor_type;location;lat;lon;timestamp;pressure;altitude;pressure_sealevel;temperature;humidity
55347;BME280;41218;55.700;38.270;2023-02-11T00:00:59;99771.78;;;-1.03;65.69
55347;BME280;41218;55.700;38.270;2023-02-11T00:06:01;99763.66;;;-1.03;65.81
55347;BME280;41218;55.700;38.270;2023-02-11T00:11:03;99761.22;;;-1.04;65.81
55347;BME280;41218;55.700;38.270;2023-02-11T00:16:08;99754.19;;;-1.05;65.65
55347;BME280;41218;55.700;38.270;2023-02-11T00:21:12;99761.75;;;-1.02;65.69
55347;BME280;41218;55.700;38.270;2023-02-11T00:26:19;99755.50;;;-1.03;65.95
55347;BME280;41218;55.700;38.270;2023-02-11T00:31:21;99769.81;;;-0.97;65.64
55347;BME280;41218;55.700;38.270;2023-02-11T00:36:24;99763.06;;;-0.99;65.46
55347;BME280;41218;55.700;38.270;2023-02-11T00:41:25;99763.56;;;-0.97;65.88
55347;BME280;41218;55.700;38.270;2023-02-11T00:46:26;99740.91;;;-1.07;65.89
55347;BME280;41218;55.700;38.270;2023-02-11T00:51:27;99753.88;;;-1.04;65.94
55347;BME280;41218;55.700;38.270;2023-02-11T00:56:27;99759.31;;;-1.04;65.65
55347;BME280;41218;55.700;38.270;2023-02-11T01:01:28;99759.53;;;-1.00;65.40
55347;BME280;41218;55.700;38.270;2023-02-11T01:06:28;99768.03;;;-1.07;65.59
55347;BME280;41218;55.700;38.270;2023-02-11T01:11:29;99775.44;;;-1.12;65.53
55347;BME280;41218;55.700;38.270;2023-02-11T01:16:29;99788.50;;;-1.14;65.58
55347;BME280;41218;55.700;38.270;2023-02-11T01:21:30;99790.97;;;-1.18;65.68
55347;BME280;41218;55.700;38.270;2023-02-11T01:26:30;99791.63;;;-1.26;65.74
55347;BME280;41218;55.700;38.270;2023-02-11T01:31:31;99792.13;;;-1.24;65.26
55347;BME280;41218;55.700;38.270;2023-02-11T01:36:31;99795.44;;;-1.27;65.90
55347;BME280;41218;55.700;38.270;2023-02-11T01:41:32;99786.31;;;-1.36;65.68
55347;BME280;41218;55.700;38.270;2023-02-11T01:46:35;99798.47;;;-1.34;65.55
55347;BME280;41218;55.700;38.270;2023-02-11T01:51:41;99804.25;;;-1.41;65.59
55347;BME280;41218;55.700;38.270;2023-02-11T01:56:48;99804.34;;;-1.46;65.50
55347;BME280;41218;55.700;38.270;2023-02-11T02:02:10;99805.41;;;-1.47;65.81
55347;BME280;41218;55.700;38.270;2023-02-11T02:07:18;99802.53;;;-1.55;65.83
55347;BME280;41218;55.700;38.270;2023-02-11T02:12:22;99793.91;;;-1.63;65.45
55347;BME280;41218;55.700;38.270;2023-02-11T02:17:35;99807.25;;;-1.66;65.88
55347;BME280;41218;55.700;38.270;2023-02-11T02:33:59;99784.78;;;-1.96;65.95
55347;BME280;41218;55.700;38.270;2023-02-11T02:39:12;99793.69;;;-1.90;66.28
55347;BME280;41218;55.700;38.270;2023-02-11T02:44:14;99796.94;;;-1.93;65.99
55347;BME280;41218;55.700;38.270;2023-02-11T02:49:15;99779.41;;;-2.01;66.10
55347;BME280;41218;55.700;38.270;2023-02-11T03:00:43;99799.47;;;-2.02;66.19
55347;BME280;41218;55.700;38.270;2023-02-11T03:10:26;99792.25;;;-2.12;66.26
55347;BME280;41218;55.700;38.270;2023-02-11T03:15:29;99783.34;;;-2.17;66.21
55347;BME280;41218;55.700;38.270;2023-02-11T03:20:35;99789.03;;;-2.19;66.08
55347;BME280;41218;55.700;38.270;2023-02-11T03:25:41;99787.97;;;-2.18;66.22
55347;BME280;41218;55.700;38.270;2023-02-11T03:30:49;99781.47;;;-2.17;66.17
55347;BME280;41218;55.700;38.270;2023-02-11T03:35:55;99787.94;;;-2.13;66.01
55347;BME280;41218;55.700;38.270;2023-02-11T03:40:58;99787.88;;;-2.08;66.50
55347;BME280;41218;55.700;38.270;2023-02-11T03:46:02;99779.19;;;-2.05;66.25
55347;BME280;41218;55.700;38.270;2023-02-11T03:51:05;99766.28;;;-2.13;66.11
55347;BME280;41218;55.700;38.270;2023-02-11T03:56:09;99783.03;;;-2.11;66.15
55347;BME280;41218;55.700;38.270;2023-02-11T04:01:12;99780.34;;;-2.11;66.26
55347;BME280;41218;55.700;38.270;2023-02-11T04:06:12;99769.81;;;-2.17;66.23
55347;BME280;41218;55.700;38.270;2023-02-11T04:11:13;99782.53;;;-2.13;66.45
55347;BME280;41218;55.700;38.270;2023-02-11T04:16:13;99769.88;;;-2.23;66.11
55347;BME280;41218;55.700;38.270;2023-02-11T04:21:14;99772.59;;;-2.28;66.51
55347;BME280;41218;55.700;38.270;2023-02-11T04:26:14;99762.13;;;-2.34;66.30
55347;BME280;41218;55.700;38.270;2023-02-11T04:31:15;99764.03;;;-2.40;66.12
55347;BME280;41218;55.700;38.270;2023-02-11T04:36:15;99774.59;;;-2.38;66.36
55347;BME280;41218;55.700;38.270;2023-02-11T04:41:16;99771.91;;;-2.38;66.50
55347;BME280;41218;55.700;38.270;2023-02-11T04:46:16;99778.09;;;-2.38;66.33
55347;BME280;41218;55.700;38.270;2023-02-11T04:51:17;99787.34;;;-2.39;66.29
55347;BME280;41218;55.700;38.270;2023-02-11T04:56:17;99781.94;;;-2.44;66.27
55347;BME280;41218;55.700;38.270;2023-02-11T05:01:18;99781.94;;;-2.44;66.49
55347;BME280;41218;55.700;38.270;2023-02-11T05:06:19;99779.78;;;-2.42;66.42
55347;BME280;41218;55.700;38.270;2023-02-11T05:11:22;99781.94;;;-2.44;66.52
55347;BME280;41218;55.700;38.270;2023-02-11T05:16:23;99778.72;;;-2.46;66.29
55347;BME280;41218;55.700;38.270;2023-02-11T05:21:23;99793.81;;;-2.40;66.52
55347;BME280;41218;55.700;38.270;2023-02-11T05:26:24;99798.09;;;-2.34;66.68
55347;BME280;41218;55.700;38.270;2023-02-11T05:31:25;99791.03;;;-2.30;66.62
55347;BME280;41218;55.700;38.270;2023-02-11T05:36:26;99788.09;;;-2.33;66.12
55347;BME280;41218;55.700;38.270;2023-02-11T05:41:26;99781.88;;;-2.34;66.14
55347;BME280;41218;55.700;38.270;2023-02-11T05:46:27;99773.81;;;-2.39;66.02
55347;BME280;41218;55.700;38.270;2023-02-11T05:51:27;99791.09;;;-2.35;66.55
55347;BME280;41218;55.700;38.270;2023-02-11T05:56:28;99791.91;;;-2.34;66.27
55347;BME280;41218;55.700;38.270;2023-02-11T06:01:28;99789.66;;;-2.27;65.96
55347;BME280;41218;55.700;38.270;2023-02-11T06:06:28;99795.59;;;-2.25;65.96
55347;BME280;41218;55.700;38.270;2023-02-11T06:11:29;99806.69;;;-2.22;65.80
55347;BME280;41218;55.700;38.270;2023-02-11T06:16:29;99797.13;;;-2.14;65.90
55347;BME280;41218;55.700;38.270;2023-02-11T06:21:30;99796.06;;;-2.13;66.24
55347;BME280;41218;55.700;38.270;2023-02-11T06:26:31;99795.47;;;-2.10;66.11
55347;BME280;41218;55.700;38.270;2023-02-11T06:31:32;99792.66;;;-1.99;66.03
55347;BME280;41218;55.700;38.270;2023-02-11T06:36:32;99792.94;;;-2.01;66.21
55347;BME280;41218;55.700;38.270;2023-02-11T06:41:33;99795.56;;;-1.91;65.63
55347;BME280;41218;55.700;38.270;2023-02-11T06:46:33;99792.00;;;-1.86;65.51
55347;BME280;41218;55.700;38.270;2023-02-11T06:51:34;99796.81;;;-1.78;65.44
55347;BME280;41218;55.700;38.270;2023-02-11T06:56:34;99779.78;;;-1.84;65.65
55347;BME280;41218;55.700;38.270;2023-02-11T07:01:36;99777.09;;;-1.84;65.31
55347;BME280;41218;55.700;38.270;2023-02-11T07:06:36;99802.69;;;-1.71;64.92
55347;BME280;41218;55.700;38.270;2023-02-11T07:11:38;99800.81;;;-1.70;64.99
55347;BME280;41218;55.700;38.270;2023-02-11T07:16:39;99796.19;;;-1.70;65.67
55347;BME280;41218;55.700;38.270;2023-02-11T07:21:39;99792.59;;;-1.65;64.61
55347;BME280;41218;55.700;38.270;2023-02-11T07:26:40;99799.66;;;-1.64;65.04
55347;BME280;41218;55.700;38.270;2023-02-11T07:31:40;99789.09;;;-1.66;65.04
55347;BME280;41218;55.700;38.270;2023-02-11T07:36:41;99805.69;;;-1.48;65.09
55347;BME280;41218;55.700;38.270;2023-02-11T07:41:42;99783.47;;;-1.50;64.78
55347;BME280;41218;55.700;38.270;2023-02-11T07:46:46;99790.69;;;-1.65;64.28
55347;BME280;41218;55.700;38.270;2023-02-11T07:51:48;99787.00;;;-1.74;64.16
55347;BME280;41218;55.700;38.270;2023-02-11T07:56:50;99773.78;;;-1.81;64.41
55347;BME280;41218;55.700;38.270;2023-02-11T08:01:50;99788.84;;;-1.69;64.79
55347;BME280;41218;55.700;38.270;2023-02-11T08:06:51;99779.22;;;-1.56;64.32
55347;BME280;41218;55.700;38.270;2023-02-11T08:11:53;99765.34;;;-1.50;64.32
55347;BME280;41218;55.700;38.270;2023-02-11T08:16:54;99771.34;;;-1.34;64.33
55347;BME280;41218;55.700;38.270;2023-02-11T08:21:55;99763.31;;;-1.20;64.08
55347;BME280;41218;55.700;38.270;2023-02-11T08:26:56;99752.66;;;-1.11;64.17
55347;BME280;41218;55.700;38.270;2023-02-11T08:31:56;99748.81;;;-1.10;64.04
55347;BME280;41218;55.700;38.270;2023-02-11T08:36:57;99751.53;;;-1.10;63.97
55347;BME280;41218;55.700;38.270;2023-02-11T08:41:57;99739.59;;;-1.09;63.83
55347;BME280;41218;55.700;38.270;2023-02-11T08:46:58;99737.47;;;-1.12;64.00
55347;BME280;41218;55.700;38.270;2023-02-11T08:51:59;99714.16;;;-1.13;63.74
55347;BME280;41218;55.700;38.270;2023-02-11T08:57:03;99720.75;;;-1.01;63.77
55347;BME280;41218;55.700;38.270;2023-02-11T09:02:04;99713.25;;;-0.90;64.19
55347;BME280;41218;55.700;38.270;2023-02-11T09:07:05;99701.09;;;-0.92;63.51
55347;BME280;41218;55.700;38.270;2023-02-11T09:12:06;99692.91;;;-0.87;63.24
55347;BME280;41218;55.700;38.270;2023-02-11T09:17:07;99681.66;;;-0.81;63.11
55347;BME280;41218;55.700;38.270;2023-02-11T09:22:07;99659.56;;;-0.74;63.12
55347;BME280;41218;55.700;38.270;2023-02-11T09:27:08;99647.00;;;-0.70;63.05
55347;BME280;41218;55.700;38.270;2023-02-11T09:32:08;99635.25;;;-0.65;62.85
55347;BME280;41218;55.700;38.270;2023-02-11T09:37:09;99627.75;;;-0.54;62.57
55347;BME280;41218;55.700;38.270;2023-02-11T09:42:35;99608.41;;;-0.53;62.65
55347;BME280;41218;55.700;38.270;2023-02-11T09:47:53;99601.91;;;-0.52;62.49
55347;BME280;41218;55.700;38.270;2023-02-11T09:57:57;99587.59;;;-0.71;62.81
55347;BME280;41218;55.700;38.270;2023-02-11T10:24:11;99587.34;;;-0.89;63.07
55347;BME280;41218;55.700;38.270;2023-02-11T10:29:23;99573.88;;;-0.94;62.88
55347;BME280;41218;55.700;38.270;2023-02-11T10:34:26;99565.22;;;-0.96;63.16
55347;BME280;41218;55.700;38.270;2023-02-11T10:39:27;99563.81;;;-0.93;63.25
55347;BME280;41218;55.700;38.270;2023-02-11T10:44:36;99557.06;;;-0.96;62.87
55347;BME280;41218;55.700;38.270;2023-02-11T10:49:40;99542.28;;;-1.04;63.22
55347;BME280;41218;55.700;38.270;2023-02-11T10:54:41;99516.75;;;-1.16;63.44
55347;BME280;41218;55.700;38.270;2023-02-11T10:59:44;99516.84;;;-1.08;63.65
55347;BME280;41218;55.700;38.270;2023-02-11T11:04:44;99507.22;;;-1.00;63.47
55347;BME280;41218;55.700;38.270;2023-02-11T11:10:00;99494.97;;;-0.97;63.58
55347;BME280;41218;55.700;38.270;2023-02-11T11:15:31;99484.53;;;-0.90;63.77
55347;BME280;41218;55.700;38.270;2023-02-11T11:20:31;99474.41;;;-0.85;63.35
55347;BME280;41218;55.700;38.270;2023-02-11T11:25:36;99452.91;;;-0.81;63.78
55347;BME280;41218;55.700;38.270;2023-02-11T11:30:41;99453.38;;;-0.65;63.43
55347;BME280;41218;55.700;38.270;2023-02-11T11:35:43;99434.09;;;-0.64;63.61
55347;BME280;41218;55.700;38.270;2023-02-11T11:41:12;99432.44;;;-0.51;63.30
55347;BME280;41218;55.700;38.270;2023-02-11T11:46:22;99415.66;;;-0.53;63.03
55347;BME280;41218;55.700;38.270;2023-02-11T11:51:23;99393.03;;;-0.48;63.36
55347;BME280;41218;55.700;38.270;2023-02-11T11:56:27;99366.50;;;-0.51;63.25
55347;BME280;41218;55.700;38.270;2023-02-11T12:17:19;99338.00;;;-0.40;63.12
55347;BME280;41218;55.700;38.270;2023-02-11T12:22:35;99333.88;;;-0.37;63.39
55347;BME280;41218;55.700;38.270;2023-02-11T12:27:45;99325.72;;;-0.37;63.20
55347;BME280;41218;55.700;38.270;2023-02-11T12:54:13;99301.09;;;-0.41;63.18
55347;BME280;41218;55.700;38.270;2023-02-11T12:59:37;99294.06;;;-0.42;62.93
55347;BME280;41218;55.700;38.270;2023-02-11T13:04:45;99286.56;;;-0.59;62.36
55347;BME280;41218;55.700;38.270;2023-02-11T13:09:55;99276.53;;;-0.58;62.42
55347;BME280;41218;55.700;38.270;2023-02-11T13:15:02;99269.13;;;-0.67;62.80
55347;BME280;41218;55.700;38.270;2023-02-11T13:25:42;99244.63;;;-0.75;63.33
55347;BME280;41218;55.700;38.270;2023-02-11T13:30:46;99250.25;;;-0.72;63.60
55347;BME280;41218;55.700;38.270;2023-02-11T13:41:01;99222.84;;;-0.84;63.23
55347;BME280;41218;55.700;38.270;2023-02-11T13:46:11;99209.22;;;-0.93;62.85
55347;BME280;41218;55.700;38.270;2023-02-11T13:51:15;99186.94;;;-1.04;62.89
55347;BME280;41218;55.700;38.270;2023-02-11T13:56:37;99173.50;;;-1.09;63.16
55347;BME280;41218;55.700;38.270;2023-02-11T14:07:30;99155.84;;;-1.20;62.92
55347;BME280;41218;55.700;38.270;2023-02-11T14:23:46;99112.88;;;-1.27;63.23
55347;BME280;41218;55.700;38.270;2023-02-11T14:28:50;99115.69;;;-1.32;63.67
55347;BME280;41218;55.700;38.270;2023-02-11T14:33:55;99093.53;;;-1.34;63.77
55347;BME280;41218;55.700;38.270;2023-02-11T14:39:20;99066.25;;;-1.37;63.70
55347;BME280;41218;55.700;38.270;2023-02-11T14:44:27;99063.63;;;-1.43;63.99
55347;BME280;41218;55.700;38.270;2023-02-11T14:49:38;99050.72;;;-1.46;63.90
55347;BME280;41218;55.700;38.270;2023-02-11T14:54:41;99047.19;;;-1.46;64.19
55347;BME280;41218;55.700;38.270;2023-02-11T14:59:58;99035.84;;;-1.48;64.40
55347;BME280;41218;55.700;38.270;2023-02-11T15:10:41;99010.31;;;-1.56;65.36
55347;BME280;41218;55.700;38.270;2023-02-11T15:15:43;98993.94;;;-1.65;64.91
55347;BME280;41218;55.700;38.270;2023-02-11T15:20:46;98994.63;;;-1.59;65.07
55347;BME280;41218;55.700;38.270;2023-02-11T15:25:53;98978.38;;;-1.59;65.21
55347;BME280;41218;55.700;38.270;2023-02-11T15:31:30;98966.13;;;-1.56;65.30
55347;BME280;41218;55.700;38.270;2023-02-11T15:36:24;98946.16;;;-1.61;65.43
55347;BME280;41218;55.700;38.270;2023-02-11T15:41:36;98943.16;;;-1.59;65.54
55347;BME280;41218;55.700;38.270;2023-02-11T15:46:38;98931.81;;;-1.61;65.93
55347;BME280;41218;55.700;38.270;2023-02-11T15:51:39;98917.09;;;-1.69;65.64
55347;BME280;41218;55.700;38.270;2023-02-11T15:56:48;98913.66;;;-1.61;66.25
55347;BME280;41218;55.700;38.270;2023-02-11T16:01:50;98909.53;;;-1.58;66.04
55347;BME280;41218;55.700;38.270;2023-02-11T16:06:53;98885.56;;;-1.65;66.42
55347;BME280;41218;55.700;38.270;2023-02-11T16:11:56;98895.97;;;-1.58;66.46
55347;BME280;41218;55.700;38.270;2023-02-11T16:22:21;98872.69;;;-1.59;66.71
55347;BME280;41218;55.700;38.270;2023-02-11T16:27:40;98876.53;;;-1.60;67.22
55347;BME280;41218;55.700;38.270;2023-02-11T16:32:41;98858.34;;;-1.59;66.78
55347;BME280;41218;55.700;38.270;2023-02-11T16:37:41;98853.06;;;-1.65;66.70
55347;BME280;41218;55.700;38.270;2023-02-11T16:42:42;98847.31;;;-1.63;67.59
55347;BME280;41218;55.700;38.270;2023-02-11T16:47:42;98840.81;;;-1.62;67.72
55347;BME280;41218;55.700;38.270;2023-02-11T16:52:43;98837.78;;;-1.61;67.50
55347;BME280;41218;55.700;38.270;2023-02-11T16:57:45;98819.94;;;-1.62;67.77
55347;BME280;41218;55.700;38.270;2023-02-11T17:02:45;98823.91;;;-1.59;68.06
55347;BME280;41218;55.700;38.270;2023-02-11T17:07:46;98799.00;;;-1.70;68.05
55347;BME280;41218;55.700;38.270;2023-02-11T17:12:48;98800.16;;;-1.62;68.78
55347;BME280;41218;55.700;38.270;2023-02-11T17:17:48;98789.81;;;-1.60;68.12
55347;BME280;41218;55.700;38.270;2023-02-11T17:22:49;98775.44;;;-1.61;68.60
55347;BME280;41218;55.700;38.270;2023-02-11T17:27:50;98750.56;;;-1.63;68.53
55347;BME280;41218;55.700;38.270;2023-02-11T17:32:50;98735.28;;;-1.58;68.91
55347;BME280;41218;55.700;38.270;2023-02-11T17:37:51;98726.53;;;-1.55;68.80
55347;BME280;41218;55.700;38.270;2023-02-11T17:42:52;98728.47;;;-1.56;68.69
55347;BME280;41218;55.700;38.270;2023-02-11T17:47:52;98706.13;;;-1.62;68.93
55347;BME280;41218;55.700;38.270;2023-02-11T17:52:53;98698.66;;;-1.56;69.17
55347;BME280;41218;55.700;38.270;2023-02-11T17:57:54;98690.03;;;-1.58;69.17
55347;BME280;41218;55.700;38.270;2023-02-11T18:02:54;98686.69;;;-1.55;69.84
55347;BME280;41218;55.700;38.270;2023-02-11T18:07:57;98670.72;;;-1.56;69.51
55347;BME280;41218;55.700;38.270;2023-02-11T18:12:58;98668.97;;;-1.52;69.78
55347;BME280;41218;55.700;38.270;2023-02-11T18:17:58;98646.50;;;-1.53;69.64
55347;BME280;41218;55.700;38.270;2023-02-11T18:22:58;98656.72;;;-1.50;69.89
55347;BME280;41218;55.700;38.270;2023-02-11T18:27:59;98640.94;;;-1.48;69.69
55347;BME280;41218;55.700;38.270;2023-02-11T18:33:00;98629.28;;;-1.48;69.96
55347;BME280;41218;55.700;38.270;2023-02-11T18:38:00;98613.50;;;-1.46;70.11
55347;BME280;41218;55.700;38.270;2023-02-11T18:43:01;98612.72;;;-1.47;70.24
55347;BME280;41218;55.700;38.270;2023-02-11T18:48:01;98601.56;;;-1.45;70.48
55347;BME280;41218;55.700;38.270;2023-02-11T18:53:04;98594.72;;;-1.43;70.51
55347;BME280;41218;55.700;38.270;2023-02-11T18:58:05;98591.69;;;-1.41;70.35
55347;BME280;41218;55.700;38.270;2023-02-11T19:03:05;98578.28;;;-1.37;70.29
55347;BME280;41218;55.700;38.270;2023-02-11T19:08:06;98575.91;;;-1.39;70.29
55347;BME280;41218;55.700;38.270;2023-02-11T19:13:07;98563.63;;;-1.36;70.57
55347;BME280;41218;55.700;38.270;2023-02-11T19:18:08;98558.50;;;-1.38;70.25
55347;BME280;41218;55.700;38.270;2023-02-11T19:23:09;98536.53;;;-1.45;70.53
55347;BME280;41218;55.700;38.270;2023-02-11T19:28:10;98542.09;;;-1.33;70.63
55347;BME280;41218;55.700;38.270;2023-02-11T19:33:10;98523.91;;;-1.32;70.57
55347;BME280;41218;55.700;38.270;2023-02-11T19:38:11;98515.78;;;-1.32;70.65
55347;BME280;41218;55.700;38.270;2023-02-11T19:43:13;98510.03;;;-1.31;71.27
55347;BME280;41218;55.700;38.270;2023-02-11T19:48:13;98502.53;;;-1.34;71.68
55347;BME280;41218;55.700;38.270;2023-02-11T19:53:14;98500.63;;;-1.33;70.76
55347;BME280;41218;55.700;38.270;2023-02-11T19:58:15;98489.97;;;-1.30;70.92
55347;BME280;41218;55.700;38.270;2023-02-11T20:03:16;98488.34;;;-1.31;71.43
55347;BME280;41218;55.700;38.270;2023-02-11T20:08:16;98482.28;;;-1.28;71.46
55347;BME280;41218;55.700;38.270;2023-02-11T20:13:17;98477.81;;;-1.24;71.19
55347;BME280;41218;55.700;38.270;2023-02-11T20:18:18;98466.81;;;-1.27;72.40
55347;BME280;41218;55.700;38.270;2023-02-11T20:23:18;98457.22;;;-1.25;71.67
55347;BME280;41218;55.700;38.270;2023-02-11T20:28:19;98457.88;;;-1.19;71.28
55347;BME280;41218;55.700;38.270;2023-02-11T20:33:19;98441.13;;;-1.21;71.76
55347;BME280;41218;55.700;38.270;2023-02-11T20:38:20;98430.75;;;-1.19;71.53
55347;BME280;41218;55.700;38.270;2023-02-11T20:43:20;98434.09;;;-1.22;71.75
55347;BME280;41218;55.700;38.270;2023-02-11T20:48:21;98435.50;;;-1.16;71.42
55347;BME280;41218;55.700;38.270;2023-02-11T20:53:21;98435.19;;;-1.14;71.78
55347;BME280;41218;55.700;38.270;2023-02-11T20:58:22;98416.69;;;-1.12;71.49
55347;BME280;41218;55.700;38.270;2023-02-11T21:03:22;98419.88;;;-1.10;71.51
55347;BME280;41218;55.700;38.270;2023-02-11T21:08:23;98422.72;;;-1.07;71.71
55347;BME280;41218;55.700;38.270;2023-02-11T21:13:24;98418.88;;;-1.06;71.94
55347;BME280;41218;55.700;38.270;2023-02-11T21:18:26;98413.00;;;-1.08;72.05
55347;BME280;41218;55.700;38.270;2023-02-11T21:23:26;98406.00;;;-1.09;71.94
55347;BME280;41218;55.700;38.270;2023-02-11T21:28:28;98406.00;;;-1.09;72.06
55347;BME280;41218;55.700;38.270;2023-02-11T21:33:29;98401.19;;;-1.03;72.09
55347;BME280;41218;55.700;38.270;2023-02-11T21:38:32;98395.41;;;-1.02;71.74
55347;BME280;41218;55.700;38.270;2023-02-11T21:43:34;98396.41;;;-1.06;72.21
55347;BME280;41218;55.700;38.270;2023-02-11T21:48:34;98390.81;;;-1.01;72.29
55347;BME280;41218;55.700;38.270;2023-02-11T21:53:35;98380.91;;;-0.97;71.98
55347;BME280;41218;55.700;38.270;2023-02-11T21:58:36;98370.84;;;-0.96;72.20
55347;BME280;41218;55.700;38.270;2023-02-11T22:03:36;98361.91;;;-0.97;72.26
55347;BME280;41218;55.700;38.270;2023-02-11T22:08:38;98360.59;;;-0.91;71.66
55347;BME280;41218;55.700;38.270;2023-02-11T22:13:39;98359.78;;;-0.91;72.04
55347;BME280;41218;55.700;38.270;2023-02-11T22:18:41;98358.06;;;-0.96;72.03
55347;BME280;41218;55.700;38.270;2023-02-11T22:23:42;98362.63;;;-0.88;72.58
55347;BME280;41218;55.700;38.270;2023-02-11T22:28:43;98351.19;;;-0.93;72.34
55347;BME280;41218;55.700;38.270;2023-02-11T22:33:43;98339.69;;;-0.90;72.21
55347;BME280;41218;55.700;38.270;2023-02-11T22:38:44;98349.06;;;-0.88;72.06
55347;BME280;41218;55.700;38.270;2023-02-11T22:43:45;98348.13;;;-0.83;72.08
55347;BME280;41218;55.700;38.270;2023-02-11T22:48:46;98345.41;;;-0.83;71.96
55347;BME280;41218;55.700;38.270;2023-02-11T22:53:51;98351.41;;;-0.77;72.32
55347;BME280;41218;55.700;38.270;2023-02-11T22:58:55;98353.84;;;-0.85;72.06
55347;BME280;41218;55.700;38.270;2023-02-11T23:03:58;98344.94;;;-0.85;72.20
55347;BME280;41218;55.700;38.270;2023-02-11T23:08:59;98350.63;;;-0.78;71.93
55347;BME280;41218;55.700;38.270;2023-02-11T23:14:01;98353.34;;;-0.78;72.19
55347;BME280;41218;55.700;38.270;2023-02-11T23:19:05;98349.97;;;-0.75;72.01
55347;BME280;41218;55.700;38.270;2023-02-11T23:24:09;98353.47;;;-0.74;72.08
55347;BME280;41218;55.700;38.270;2023-02-11T23:29:11;98350.75;;;-0.74;72.48
55347;BME280;41218;55.700;38.270;2023-02-11T23:34:12;98350.44;;;-0.73;72.25
55347;BME280;41218;55.700;38.270;2023-02-11T23:39:24;98352.00;;;-0.72;72.46
55347;BME280;41218;55.700;38.270;2023-02-11T23:44:25;98353.28;;;-0.69;72.62
55347;BME280;41218;55.700;38.270;2023-02-11T23:49:26;98351.38;;;-0.69;72.18
55347;BME280;41218;55.700;38.270;2023-02-11T23:54:26;98337.34;;;-0.71;72.56
55347;BME280;41218;55.700;38.270;2023-02-11T23:59:27;98345.72;;;-0.64;72.57
